sensor_id;sensor_type;location;lat;lon;timestamp;P1;durP1;ratioP1;P2;durP2;ratioP2
19664;SDS011;9980;51.020;7.772;2023-10-08T00:01:17;6.90;;;3.83;;
19664;SDS011;9980;51.020;7.772;2023-10-08T00:03:48;7.40;;;4.43;;
19664;SDS011;9980;51.020;7.772;2023-10-08T00:06:17;5.67;;;3.40;;
19664;SDS011;9980;51.020;7.772;2023-10-08T00:08:47;8.47;;;4.07;;
19664;SDS011;9980;51.020;7.772;2023-10-08T00:11:16;5.40;;;3.83;;
19664;SDS011;9980;51.020;7.772;2023-10-08T00:13:44;6.77;;;4.00;;
19664;SDS011;9980;51.020;7.772;2023-10-08T00:16:12;5.20;;;3.67;;
19664;SDS011;9980;51.020;7.772;2023-10-08T00:18:44;4.20;;;3.40;;
19664;SDS011;9980;51.020;7.772;2023-10-08T00:21:15;6.07;;;3.93;;
19664;SDS011;9980;51.020;7.772;2023-10-08T00:23:43;5.70;;;3.70;;
19664;SDS011;9980;51.020;7.772;2023-10-08T00:26:39;4.97;;;4.10;;
19664;SDS011;9980;51.020;7.772;2023-10-08T00:29:07;5.87;;;4.57;;
19664;SDS011;9980;51.020;7.772;2023-10-08T00:31:48;8.43;;;4.33;;
19664;SDS011;9980;51.020;7.772;2023-10-08T00:34:18;6.37;;;4.00;;
19664;SDS011;9980;51.020;7.772;2023-10-08T00:36:47;6.67;;;4.17;;
19664;SDS011;9980;51.020;7.772;2023-10-08T00:39:15;6.50;;;4.37;;
19664;SDS011;9980;51.020;7.772;2023-10-08T00:41:49;5.23;;;3.67;;
19664;SDS011;9980;51.020;7.772;2023-10-08T00:44:24;6.53;;;4.40;;
19664;SDS011;9980;51.020;7.772;2023-10-08T00:46:56;7.03;;;4.53;;
19664;SDS011;9980;51.020;7.772;2023-10-08T00:49:28;6.03;;;3.93;;
19664;SDS011;9980;51.020;7.772;2023-10-08T00:52:08;7.83;;;4.00;;
19664;SDS011;9980;51.020;7.772;2023-10-08T00:54:37;4.87;;;3.57;;
19664;SDS011;9980;51.020;7.772;2023-10-08T00:57:22;8.03;;;4.20;;
19664;SDS011;9980;51.020;7.772;2023-10-08T00:59:56;6.63;;;4.53;;
19664;SDS011;9980;51.020;7.772;2023-10-08T01:02:25;6.73;;;4.30;;
19664;SDS011;9980;51.020;7.772;2023-10-08T01:05:13;7.33;;;4.77;;
19664;SDS011;9980;51.020;7.772;2023-10-08T01:07:45;4.30;;;3.90;;
19664;SDS011;9980;51.020;7.772;2023-10-08T01:10:17;6.83;;;3.20;;
19664;SDS011;9980;51.020;7.772;2023-10-08T01:12:47;4.20;;;3.20;;
19664;SDS011;9980;51.020;7.772;2023-10-08T01:15:21;8.03;;;3.80;;
19664;SDS011;9980;51.020;7.772;2023-10-08T01:17:55;5.50;;;4.07;;
19664;SDS011;9980;51.020;7.772;2023-10-08T01:20:27;6.90;;;4.30;;
19664;SDS011;9980;51.020;7.772;2023-10-08T01:23:03;6.43;;;4.27;;
19664;SDS011;9980;51.020;7.772;2023-10-08T01:25:43;6.30;;;4.10;;
19664;SDS011;9980;51.020;7.772;2023-10-08T01:28:17;6.57;;;4.03;;
19664;SDS011;9980;51.020;7.772;2023-10-08T01:30:52;8.00;;;4.50;;
19664;SDS011;9980;51.020;7.772;2023-10-08T01:33:21;7.43;;;4.03;;
19664;SDS011;9980;51.020;7.772;2023-10-08T01:35:49;6.63;;;4.30;;
19664;SDS011;9980;51.020;7.772;2023-10-08T01:38:16;10.70;;;4.60;;
19664;SDS011;9980;51.020;7.772;2023-10-08T01:40:50;7.90;;;4.53;;
19664;SDS011;9980;51.020;7.772;2023-10-08T01:43:17;7.03;;;4.50;;
19664;SDS011;9980;51.020;7.772;2023-10-08T01:45:46;4.57;;;3.73;;
19664;SDS011;9980;51.020;7.772;2023-10-08T01:48:17;5.07;;;4.03;;
19664;SDS011;9980;51.020;7.772;2023-10-08T01:50:55;4.80;;;3.83;;
19664;SDS011;9980;51.020;7.772;2023-10-08T01:53:24;4.13;;;3.70;;
19664;SDS011;9980;51.020;7.772;2023-10-08T01:55:52;6.37;;;3.90;;
19664;SDS011;9980;51.020;7.772;2023-10-08T01:58:21;8.50;;;4.50;;
19664;SDS011;9980;51.020;7.772;2023-10-08T02:00:50;8.07;;;4.43;;
19664;SDS011;9980;51.020;7.772;2023-10-08T02:03:18;6.47;;;4.10;;
19664;SDS011;9980;51.020;7.772;2023-10-08T02:05:46;7.60;;;3.93;;
19664;SDS011;9980;51.020;7.772;2023-10-08T02:08:14;5.77;;;4.23;;
19664;SDS011;9980;51.020;7.772;2023-10-08T02:10:43;5.57;;;4.20;;
19664;SDS011;9980;51.020;7.772;2023-10-08T02:13:13;6.53;;;4.10;;
19664;SDS011;9980;51.020;7.772;2023-10-08T02:15:45;4.93;;;4.13;;
19664;SDS011;9980;51.020;7.772;2023-10-08T02:18:18;9.17;;;4.20;;
19664;SDS011;9980;51.020;7.772;2023-10-08T02:20:48;6.73;;;4.83;;
19664;SDS011;9980;51.020;7.772;2023-10-08T02:23:15;5.10;;;4.07;;
19664;SDS011;9980;51.020;7.772;2023-10-08T02:25:42;8.90;;;3.73;;
19664;SDS011;9980;51.020;7.772;2023-10-08T02:28:10;10.10;;;4.90;;
19664;SDS011;9980;51.020;7.772;2023-10-08T02:30:42;7.00;;;4.80;;
19664;SDS011;9980;51.020;7.772;2023-10-08T02:33:10;5.33;;;4.17;;
19664;SDS011;9980;51.020;7.772;2023-10-08T02:35:43;7.53;;;4.17;;
19664;SDS011;9980;51.020;7.772;2023-10-08T02:38:13;5.50;;;4.27;;
19664;SDS011;9980;51.020;7.772;2023-10-08T02:40:43;5.37;;;4.10;;
19664;SDS011;9980;51.020;7.772;2023-10-08T02:43:14;5.57;;;3.90;;
19664;SDS011;9980;51.020;7.772;2023-10-08T02:45:43;5.53;;;4.17;;
19664;SDS011;9980;51.020;7.772;2023-10-08T02:48:16;5.47;;;4.10;;
19664;SDS011;9980;51.020;7.772;2023-10-08T02:50:44;8.10;;;3.70;;
19664;SDS011;9980;51.020;7.772;2023-10-08T02:53:12;6.20;;;4.40;;
19664;SDS011;9980;51.020;7.772;2023-10-08T02:55:46;5.77;;;3.73;;
19664;SDS011;9980;51.020;7.772;2023-10-08T02:58:14;4.93;;;3.70;;
19664;SDS011;9980;51.020;7.772;2023-10-08T03:00:42;6.67;;;3.83;;
19664;SDS011;9980;51.020;7.772;2023-10-08T03:03:16;7.47;;;4.67;;
19664;SDS011;9980;51.020;7.772;2023-10-08T03:05:51;4.87;;;3.43;;
19664;SDS011;9980;51.020;7.772;2023-10-08T03:08:19;7.97;;;4.30;;
19664;SDS011;9980;51.020;7.772;2023-10-08T03:10:48;6.60;;;4.37;;
19664;SDS011;9980;51.020;7.772;2023-10-08T03:13:29;6.50;;;4.43;;
19664;SDS011;9980;51.020;7.772;2023-10-08T03:15:57;10.23;;;4.77;;
19664;SDS011;9980;51.020;7.772;2023-10-08T03:18:34;6.60;;;4.63;;
19664;SDS011;9980;51.020;7.772;2023-10-08T03:21:04;6.57;;;4.23;;
19664;SDS011;9980;51.020;7.772;2023-10-08T03:23:49;8.47;;;4.37;;
19664;SDS011;9980;51.020;7.772;2023-10-08T03:26:17;5.60;;;3.57;;
19664;SDS011;9980;51.020;7.772;2023-10-08T03:29:05;7.10;;;3.83;;
19664;SDS011;9980;51.020;7.772;2023-10-08T03:31:35;7.13;;;3.90;;
19664;SDS011;9980;51.020;7.772;2023-10-08T03:34:17;5.63;;;3.83;;
19664;SDS011;9980;51.020;7.772;2023-10-08T03:36:46;7.43;;;4.23;;
19664;SDS011;9980;51.020;7.772;2023-10-08T03:39:16;4.57;;;3.97;;
19664;SDS011;9980;51.020;7.772;2023-10-08T03:41:46;5.47;;;4.27;;
19664;SDS011;9980;51.020;7.772;2023-10-08T03:44:25;5.63;;;4.20;;
19664;SDS011;9980;51.020;7.772;2023-10-08T03:46:56;8.90;;;4.53;;
19664;SDS011;9980;51.020;7.772;2023-10-08T03:49:23;6.40;;;4.43;;
19664;SDS011;9980;51.020;7.772;2023-10-08T03:51:51;6.43;;;4.03;;
19664;SDS011;9980;51.020;7.772;2023-10-08T03:54:19;6.37;;;4.30;;
19664;SDS011;9980;51.020;7.772;2023-10-08T03:56:56;5.70;;;4.67;;
19664;SDS011;9980;51.020;7.772;2023-10-08T03:59:24;9.37;;;4.80;;
19664;SDS011;9980;51.020;7.772;2023-10-08T04:02:01;5.87;;;4.63;;
19664;SDS011;9980;51.020;7.772;2023-10-08T04:04:48;6.97;;;5.10;;
19664;SDS011;9980;51.020;7.772;2023-10-08T04:07:17;9.67;;;5.00;;
19664;SDS011;9980;51.020;7.772;2023-10-08T04:10:02;4.70;;;3.97;;
19664;SDS011;9980;51.020;7.772;2023-10-08T04:12:36;5.03;;;3.70;;
19664;SDS011;9980;51.020;7.772;2023-10-08T04:15:10;4.97;;;4.20;;
19664;SDS011;9980;51.020;7.772;2023-10-08T04:17:43;5.20;;;3.87;;
19664;SDS011;9980;51.020;7.772;2023-10-08T04:20:11;5.73;;;3.97;;
19664;SDS011;9980;51.020;7.772;2023-10-08T04:23:08;7.00;;;4.10;;
19664;SDS011;9980;51.020;7.772;2023-10-08T04:25:47;7.27;;;4.47;;
19664;SDS011;9980;51.020;7.772;2023-10-08T04:28:20;5.97;;;4.40;;
19664;SDS011;9980;51.020;7.772;2023-10-08T04:30:48;10.30;;;4.27;;
19664;SDS011;9980;51.020;7.772;2023-10-08T04:33:17;7.13;;;4.50;;
19664;SDS011;9980;51.020;7.772;2023-10-08T04:35:46;5.30;;;4.27;;
19664;SDS011;9980;51.020;7.772;2023-10-08T04:38:25;7.20;;;4.50;;
19664;SDS011;9980;51.020;7.772;2023-10-08T04:40:52;6.20;;;4.93;;
19664;SDS011;9980;51.020;7.772;2023-10-08T04:43:21;7.40;;;4.03;;
19664;SDS011;9980;51.020;7.772;2023-10-08T04:45:52;5.90;;;4.37;;
19664;SDS011;9980;51.020;7.772;2023-10-08T04:48:25;6.47;;;4.47;;
19664;SDS011;9980;51.020;7.772;2023-10-08T04:50:58;7.07;;;4.50;;
19664;SDS011;9980;51.020;7.772;2023-10-08T04:53:30;8.60;;;4.80;;
19664;SDS011;9980;51.020;7.772;2023-10-08T04:56:03;10.00;;;4.50;;
19664;SDS011;9980;51.020;7.772;2023-10-08T04:58:51;5.57;;;4.07;;
19664;SDS011;9980;51.020;7.772;2023-10-08T05:01:18;6.97;;;4.70;;
19664;SDS011;9980;51.020;7.772;2023-10-08T05:03:48;8.77;;;4.73;;
19664;SDS011;9980;51.020;7.772;2023-10-08T05:06:24;10.63;;;4.33;;
19664;SDS011;9980;51.020;7.772;2023-10-08T05:09:04;9.23;;;4.70;;
19664;SDS011;9980;51.020;7.772;2023-10-08T05:11:51;7.17;;;4.53;;
19664;SDS011;9980;51.020;7.772;2023-10-08T05:14:22;5.23;;;4.43;;
19664;SDS011;9980;51.020;7.772;2023-10-08T05:17:01;7.00;;;4.57;;
19664;SDS011;9980;51.020;7.772;2023-10-08T05:19:38;7.53;;;5.00;;
19664;SDS011;9980;51.020;7.772;2023-10-08T05:22:15;6.37;;;4.50;;
19664;SDS011;9980;51.020;7.772;2023-10-08T05:24:45;10.43;;;4.70;;
19664;SDS011;9980;51.020;7.772;2023-10-08T05:27:33;9.23;;;4.70;;
19664;SDS011;9980;51.020;7.772;2023-10-08T05:30:14;6.07;;;4.30;;
19664;SDS011;9980;51.020;7.772;2023-10-08T05:32:55;6.87;;;4.63;;
19664;SDS011;9980;51.020;7.772;2023-10-08T05:35:41;7.60;;;4.63;;
19664;SDS011;9980;51.020;7.772;2023-10-08T05:38:13;6.80;;;4.80;;
19664;SDS011;9980;51.020;7.772;2023-10-08T05:41:10;8.30;;;4.90;;
19664;SDS011;9980;51.020;7.772;2023-10-08T05:43:54;4.27;;;3.73;;
19664;SDS011;9980;51.020;7.772;2023-10-08T05:46:51;4.73;;;4.13;;
19664;SDS011;9980;51.020;7.772;2023-10-08T05:49:37;6.90;;;5.03;;
19664;SDS011;9980;51.020;7.772;2023-10-08T05:52:08;6.43;;;4.10;;
19664;SDS011;9980;51.020;7.772;2023-10-08T05:54:51;8.13;;;4.80;;
19664;SDS011;9980;51.020;7.772;2023-10-08T05:57:42;7.47;;;4.23;;
19664;SDS011;9980;51.020;7.772;2023-10-08T06:00:13;7.37;;;4.53;;
19664;SDS011;9980;51.020;7.772;2023-10-08T06:02:41;6.87;;;4.37;;
19664;SDS011;9980;51.020;7.772;2023-10-08T06:05:12;9.23;;;4.53;;
19664;SDS011;9980;51.020;7.772;2023-10-08T06:10:26;7.63;;;4.83;;
19664;SDS011;9980;51.020;7.772;2023-10-08T06:13:00;8.90;;;5.03;;
19664;SDS011;9980;51.020;7.772;2023-10-08T06:15:36;7.63;;;4.47;;
19664;SDS011;9980;51.020;7.772;2023-10-08T06:18:15;13.50;;;5.07;;
19664;SDS011;9980;51.020;7.772;2023-10-08T06:20:52;11.50;;;5.83;;
19664;SDS011;9980;51.020;7.772;2023-10-08T06:23:39;4.97;;;4.23;;
19664;SDS011;9980;51.020;7.772;2023-10-08T06:26:08;10.70;;;5.67;;
19664;SDS011;9980;51.020;7.772;2023-10-08T06:28:36;9.37;;;5.77;;
19664;SDS011;9980;51.020;7.772;2023-10-08T06:31:05;6.37;;;4.57;;
19664;SDS011;9980;51.020;7.772;2023-10-08T06:33:33;8.20;;;5.70;;
19664;SDS011;9980;51.020;7.772;2023-10-08T06:36:01;11.00;;;6.00;;
19664;SDS011;9980;51.020;7.772;2023-10-08T06:38:29;11.57;;;5.47;;
19664;SDS011;9980;51.020;7.772;2023-10-08T06:41:02;10.47;;;5.57;;
19664;SDS011;9980;51.020;7.772;2023-10-08T06:43:54;12.57;;;5.87;;
19664;SDS011;9980;51.020;7.772;2023-10-08T06:46:31;7.97;;;5.03;;
19664;SDS011;9980;51.020;7.772;2023-10-08T06:48:59;8.30;;;4.80;;
19664;SDS011;9980;51.020;7.772;2023-10-08T06:51:35;8.50;;;5.53;;
19664;SDS011;9980;51.020;7.772;2023-10-08T06:54:02;9.30;;;5.33;;
19664;SDS011;9980;51.020;7.772;2023-10-08T06:56:36;11.00;;;5.57;;
19664;SDS011;9980;51.020;7.772;2023-10-08T06:59:03;8.33;;;5.10;;
19664;SDS011;9980;51.020;7.772;2023-10-08T07:01:31;11.33;;;5.90;;
19664;SDS011;9980;51.020;7.772;2023-10-08T07:04:12;8.23;;;5.10;;
19664;SDS011;9980;51.020;7.772;2023-10-08T07:06:41;11.67;;;5.93;;
19664;SDS011;9980;51.020;7.772;2023-10-08T07:09:10;7.27;;;4.83;;
19664;SDS011;9980;51.020;7.772;2023-10-08T07:11:52;8.13;;;5.00;;
19664;SDS011;9980;51.020;7.772;2023-10-08T07:14:22;13.97;;;5.50;;
19664;SDS011;9980;51.020;7.772;2023-10-08T07:16:56;10.30;;;5.27;;
19664;SDS011;9980;51.020;7.772;2023-10-08T07:19:30;13.00;;;6.13;;
19664;SDS011;9980;51.020;7.772;2023-10-08T07:22:05;12.20;;;5.90;;
19664;SDS011;9980;51.020;7.772;2023-10-08T07:24:50;9.03;;;5.77;;
19664;SDS011;9980;51.020;7.772;2023-10-08T07:27:18;10.07;;;5.53;;
19664;SDS011;9980;51.020;7.772;2023-10-08T07:29:51;12.80;;;6.10;;
19664;SDS011;9980;51.020;7.772;2023-10-08T07:32:23;11.80;;;6.03;;
19664;SDS011;9980;51.020;7.772;2023-10-08T07:34:52;15.80;;;7.23;;
19664;SDS011;9980;51.020;7.772;2023-10-08T07:37:24;11.57;;;5.93;;
19664;SDS011;9980;51.020;7.772;2023-10-08T07:39:52;12.53;;;6.83;;
19664;SDS011;9980;51.020;7.772;2023-10-08T07:42:21;29.00;;;6.63;;
19664;SDS011;9980;51.020;7.772;2023-10-08T07:44:48;13.73;;;7.10;;
19664;SDS011;9980;51.020;7.772;2023-10-08T07:47:17;12.10;;;6.70;;
19664;SDS011;9980;51.020;7.772;2023-10-08T07:49:47;10.00;;;6.37;;
19664;SDS011;9980;51.020;7.772;2023-10-08T07:52:14;13.17;;;6.13;;
19664;SDS011;9980;51.020;7.772;2023-10-08T07:54:43;13.47;;;6.50;;
19664;SDS011;9980;51.020;7.772;2023-10-08T07:57:10;12.13;;;6.43;;
19664;SDS011;9980;51.020;7.772;2023-10-08T07:59:57;15.60;;;5.87;;
19664;SDS011;9980;51.020;7.772;2023-10-08T08:02:59;15.20;;;6.97;;
19664;SDS011;9980;51.020;7.772;2023-10-08T08:05:27;11.60;;;5.43;;
19664;SDS011;9980;51.020;7.772;2023-10-08T08:07:54;9.97;;;5.50;;
19664;SDS011;9980;51.020;7.772;2023-10-08T08:10:23;15.27;;;6.87;;
19664;SDS011;9980;51.020;7.772;2023-10-08T08:12:50;12.97;;;6.87;;
19664;SDS011;9980;51.020;7.772;2023-10-08T08:15:22;14.70;;;7.27;;
19664;SDS011;9980;51.020;7.772;2023-10-08T08:17:51;14.37;;;7.60;;
19664;SDS011;9980;51.020;7.772;2023-10-08T08:20:18;16.10;;;8.37;;
19664;SDS011;9980;51.020;7.772;2023-10-08T08:22:45;15.03;;;8.90;;
19664;SDS011;9980;51.020;7.772;2023-10-08T08:25:16;20.30;;;9.00;;
19664;SDS011;9980;51.020;7.772;2023-10-08T08:27:52;20.93;;;9.30;;
19664;SDS011;9980;51.020;7.772;2023-10-08T08:30:19;19.77;;;9.90;;
19664;SDS011;9980;51.020;7.772;2023-10-08T08:32:52;17.07;;;8.07;;
19664;SDS011;9980;51.020;7.772;2023-10-08T08:35:20;18.87;;;9.33;;
19664;SDS011;9980;51.020;7.772;2023-10-08T08:37:47;14.10;;;7.83;;
19664;SDS011;9980;51.020;7.772;2023-10-08T08:40:19;18.57;;;8.80;;
19664;SDS011;9980;51.020;7.772;2023-10-08T08:42:51;20.60;;;9.50;;
19664;SDS011;9980;51.020;7.772;2023-10-08T08:45:25;20.10;;;8.67;;
19664;SDS011;9980;51.020;7.772;2023-10-08T08:47:52;18.20;;;8.60;;
19664;SDS011;9980;51.020;7.772;2023-10-08T08:50:20;19.47;;;9.20;;
19664;SDS011;9980;51.020;7.772;2023-10-08T08:52:48;16.03;;;9.07;;
19664;SDS011;9980;51.020;7.772;2023-10-08T08:55:18;19.20;;;9.17;;
19664;SDS011;9980;51.020;7.772;2023-10-08T08:57:47;17.33;;;8.50;;
19664;SDS011;9980;51.020;7.772;2023-10-08T09:00:18;19.80;;;8.90;;
19664;SDS011;9980;51.020;7.772;2023-10-08T09:02:46;18.57;;;9.20;;
19664;SDS011;9980;51.020;7.772;2023-10-08T09:05:16;17.67;;;8.47;;
19664;SDS011;9980;51.020;7.772;2023-10-08T09:08:03;19.13;;;10.17;;
19664;SDS011;9980;51.020;7.772;2023-10-08T09:10:36;22.20;;;11.40;;
19664;SDS011;9980;51.020;7.772;2023-10-08T09:13:19;22.10;;;9.80;;
19664;SDS011;9980;51.020;7.772;2023-10-08T09:15:48;17.90;;;9.50;;
19664;SDS011;9980;51.020;7.772;2023-10-08T09:18:20;16.30;;;8.53;;
19664;SDS011;9980;51.020;7.772;2023-10-08T09:20:48;16.63;;;9.67;;
19664;SDS011;9980;51.020;7.772;2023-10-08T09:23:16;19.57;;;9.97;;
19664;SDS011;9980;51.020;7.772;2023-10-08T09:25:48;23.43;;;10.70;;
19664;SDS011;9980;51.020;7.772;2023-10-08T09:28:28;19.33;;;10.53;;
19664;SDS011;9980;51.020;7.772;2023-10-08T09:31:00;22.53;;;10.97;;
19664;SDS011;9980;51.020;7.772;2023-10-08T09:33:29;21.13;;;10.37;;
19664;SDS011;9980;51.020;7.772;2023-10-08T09:35:56;23.33;;;11.17;;
19664;SDS011;9980;51.020;7.772;2023-10-08T09:38:29;23.70;;;10.47;;
19664;SDS011;9980;51.020;7.772;2023-10-08T09:40:57;20.93;;;10.47;;
19664;SDS011;9980;51.020;7.772;2023-10-08T09:43:31;22.23;;;10.97;;
19664;SDS011;9980;51.020;7.772;2023-10-08T09:48:41;28.17;;;11.87;;
19664;SDS011;9980;51.020;7.772;2023-10-08T09:51:17;25.43;;;12.30;;
19664;SDS011;9980;51.020;7.772;2023-10-08T09:53:56;25.73;;;12.40;;
19664;SDS011;9980;51.020;7.772;2023-10-08T09:56:40;22.53;;;11.83;;
19664;SDS011;9980;51.020;7.772;2023-10-08T09:59:09;23.03;;;11.80;;
19664;SDS011;9980;51.020;7.772;2023-10-08T10:01:37;25.07;;;12.07;;
19664;SDS011;9980;51.020;7.772;2023-10-08T10:04:09;24.03;;;12.50;;
19664;SDS011;9980;51.020;7.772;2023-10-08T10:06:38;20.30;;;10.97;;
19664;SDS011;9980;51.020;7.772;2023-10-08T10:09:14;20.33;;;11.87;;
19664;SDS011;9980;51.020;7.772;2023-10-08T10:11:49;24.60;;;12.93;;
19664;SDS011;9980;51.020;7.772;2023-10-08T10:14:17;23.73;;;13.17;;
19664;SDS011;9980;51.020;7.772;2023-10-08T10:16:47;25.70;;;14.40;;
19664;SDS011;9980;51.020;7.772;2023-10-08T10:19:35;29.87;;;14.10;;
19664;SDS011;9980;51.020;7.772;2023-10-08T10:22:03;25.93;;;13.43;;
19664;SDS011;9980;51.020;7.772;2023-10-08T10:24:32;23.67;;;12.93;;
19664;SDS011;9980;51.020;7.772;2023-10-08T10:27:09;27.20;;;13.60;;
19664;SDS011;9980;51.020;7.772;2023-10-08T10:29:41;23.03;;;13.27;;
19664;SDS011;9980;51.020;7.772;2023-10-08T10:32:14;27.20;;;13.97;;
19664;SDS011;9980;51.020;7.772;2023-10-08T10:34:43;31.30;;;13.77;;
19664;SDS011;9980;51.020;7.772;2023-10-08T10:37:13;25.63;;;14.70;;
19664;SDS011;9980;51.020;7.772;2023-10-08T10:39:53;27.77;;;14.67;;
19664;SDS011;9980;51.020;7.772;2023-10-08T10:42:27;26.07;;;15.17;;
19664;SDS011;9980;51.020;7.772;2023-10-08T10:44:54;23.87;;;13.90;;
19664;SDS011;9980;51.020;7.772;2023-10-08T10:47:23;22.93;;;13.27;;
19664;SDS011;9980;51.020;7.772;2023-10-08T10:49:54;31.13;;;14.70;;
19664;SDS011;9980;51.020;7.772;2023-10-08T10:52:21;26.40;;;13.70;;
19664;SDS011;9980;51.020;7.772;2023-10-08T10:55:08;26.17;;;13.77;;
19664;SDS011;9980;51.020;7.772;2023-10-08T10:58:03;28.07;;;14.13;;
19664;SDS011;9980;51.020;7.772;2023-10-08T11:00:41;25.00;;;13.40;;
19664;SDS011;9980;51.020;7.772;2023-10-08T11:03:10;23.67;;;12.43;;
19664;SDS011;9980;51.020;7.772;2023-10-08T11:05:44;25.63;;;13.23;;
19664;SDS011;9980;51.020;7.772;2023-10-08T11:08:18;24.67;;;12.50;;
19664;SDS011;9980;51.020;7.772;2023-10-08T11:10:46;28.87;;;14.63;;
19664;SDS011;9980;51.020;7.772;2023-10-08T11:13:21;30.47;;;13.73;;
19664;SDS011;9980;51.020;7.772;2023-10-08T11:15:54;24.67;;;14.10;;
19664;SDS011;9980;51.020;7.772;2023-10-08T11:18:25;29.80;;;15.27;;
19664;SDS011;9980;51.020;7.772;2023-10-08T11:21:05;29.00;;;14.40;;
19664;SDS011;9980;51.020;7.772;2023-10-08T11:23:44;27.07;;;14.50;;
19664;SDS011;9980;51.020;7.772;2023-10-08T11:26:19;29.10;;;15.03;;
19664;SDS011;9980;51.020;7.772;2023-10-08T11:28:59;26.20;;;14.73;;
19664;SDS011;9980;51.020;7.772;2023-10-08T11:31:29;27.90;;;15.80;;
19664;SDS011;9980;51.020;7.772;2023-10-08T11:34:01;28.67;;;16.00;;
19664;SDS011;9980;51.020;7.772;2023-10-08T11:36:36;24.20;;;14.47;;
19664;SDS011;9980;51.020;7.772;2023-10-08T11:39:16;25.73;;;14.13;;
19664;SDS011;9980;51.020;7.772;2023-10-08T11:42:22;27.20;;;14.87;;
19664;SDS011;9980;51.020;7.772;2023-10-08T11:44:57;25.37;;;12.80;;
19664;SDS011;9980;51.020;7.772;2023-10-08T11:47:47;24.20;;;14.00;;
19664;SDS011;9980;51.020;7.772;2023-10-08T11:50:15;28.48;;;14.63;;
19664;SDS011;9980;51.020;7.772;2023-10-08T11:52:46;22.87;;;14.50;;
19664;SDS011;9980;51.020;7.772;2023-10-08T11:55:13;27.42;;;14.85;;
19664;SDS011;9980;51.020;7.772;2023-10-08T11:57:46;26.70;;;13.97;;
19664;SDS011;9980;51.020;7.772;2023-10-08T12:00:16;22.03;;;13.67;;
19664;SDS011;9980;51.020;7.772;2023-10-08T12:02:58;26.10;;;13.97;;
19664;SDS011;9980;51.020;7.772;2023-10-08T12:05:29;21.97;;;12.47;;
19664;SDS011;9980;51.020;7.772;2023-10-08T12:07:56;21.23;;;12.80;;
19664;SDS011;9980;51.020;7.772;2023-10-08T12:10:24;21.23;;;12.50;;
19664;SDS011;9980;51.020;7.772;2023-10-08T12:12:51;23.30;;;12.90;;
19664;SDS011;9980;51.020;7.772;2023-10-08T12:15:26;24.13;;;12.83;;
19664;SDS011;9980;51.020;7.772;2023-10-08T12:18:00;20.07;;;11.97;;
19664;SDS011;9980;51.020;7.772;2023-10-08T12:20:42;24.58;;;11.93;;
19664;SDS011;9980;51.020;7.772;2023-10-08T12:23:14;27.83;;;13.15;;
19664;SDS011;9980;51.020;7.772;2023-10-08T12:26:00;27.88;;;12.68;;
19664;SDS011;9980;51.020;7.772;2023-10-08T12:28:29;24.48;;;12.40;;
19664;SDS011;9980;51.020;7.772;2023-10-08T12:30:56;22.83;;;11.98;;
19664;SDS011;9980;51.020;7.772;2023-10-08T12:33:23;21.77;;;11.50;;
19664;SDS011;9980;51.020;7.772;2023-10-08T12:35:50;26.98;;;12.73;;
19664;SDS011;9980;51.020;7.772;2023-10-08T12:38:24;27.47;;;11.93;;
19664;SDS011;9980;51.020;7.772;2023-10-08T12:40:54;22.77;;;12.80;;
19664;SDS011;9980;51.020;7.772;2023-10-08T12:43:21;22.87;;;12.30;;
19664;SDS011;9980;51.020;7.772;2023-10-08T12:45:53;25.57;;;13.23;;
19664;SDS011;9980;51.020;7.772;2023-10-08T12:48:23;20.52;;;11.32;;
19664;SDS011;9980;51.020;7.772;2023-10-08T12:50:56;21.83;;;11.57;;
19664;SDS011;9980;51.020;7.772;2023-10-08T12:53:24;23.08;;;11.38;;
19664;SDS011;9980;51.020;7.772;2023-10-08T12:56:06;19.77;;;11.88;;
19664;SDS011;9980;51.020;7.772;2023-10-08T12:58:42;31.92;;;12.60;;
19664;SDS011;9980;51.020;7.772;2023-10-08T13:01:15;19.35;;;11.88;;
19664;SDS011;9980;51.020;7.772;2023-10-08T13:03:45;24.53;;;12.10;;
19664;SDS011;9980;51.020;7.772;2023-10-08T13:06:17;24.77;;;11.52;;
19664;SDS011;9980;51.020;7.772;2023-10-08T13:08:49;22.55;;;11.70;;
19664;SDS011;9980;51.020;7.772;2023-10-08T13:11:20;20.48;;;11.20;;
19664;SDS011;9980;51.020;7.772;2023-10-08T13:13:50;21.17;;;11.70;;
19664;SDS011;9980;51.020;7.772;2023-10-08T13:16:19;20.85;;;10.77;;
19664;SDS011;9980;51.020;7.772;2023-10-08T13:18:50;21.45;;;10.27;;
19664;SDS011;9980;51.020;7.772;2023-10-08T13:21:18;18.63;;;11.30;;
19664;SDS011;9980;51.020;7.772;2023-10-08T13:23:45;16.25;;;9.75;;
19664;SDS011;9980;51.020;7.772;2023-10-08T13:26:13;17.67;;;9.82;;
19664;SDS011;9980;51.020;7.772;2023-10-08T13:28:43;19.50;;;11.27;;
19664;SDS011;9980;51.020;7.772;2023-10-08T13:31:11;18.23;;;10.55;;
19664;SDS011;9980;51.020;7.772;2023-10-08T13:33:39;22.67;;;10.20;;
19664;SDS011;9980;51.020;7.772;2023-10-08T13:36:15;17.90;;;10.00;;
19664;SDS011;9980;51.020;7.772;2023-10-08T13:38:45;17.60;;;10.23;;
19664;SDS011;9980;51.020;7.772;2023-10-08T13:41:13;16.45;;;9.70;;
19664;SDS011;9980;51.020;7.772;2023-10-08T13:43:47;21.92;;;10.32;;
19664;SDS011;9980;51.020;7.772;2023-10-08T13:46:18;18.70;;;10.00;;
19664;SDS011;9980;51.020;7.772;2023-10-08T13:48:49;21.23;;;10.40;;
19664;SDS011;9980;51.020;7.772;2023-10-08T13:51:18;17.50;;;9.43;;
19664;SDS011;9980;51.020;7.772;2023-10-08T13:53:56;18.57;;;10.10;;
19664;SDS011;9980;51.020;7.772;2023-10-08T13:56:27;14.25;;;8.85;;
19664;SDS011;9980;51.020;7.772;2023-10-08T13:58:57;19.30;;;9.17;;
19664;SDS011;9980;51.020;7.772;2023-10-08T14:01:41;19.33;;;10.10;;
19664;SDS011;9980;51.020;7.772;2023-10-08T14:04:13;16.97;;;9.83;;
19664;SDS011;9980;51.020;7.772;2023-10-08T14:06:46;16.98;;;10.35;;
19664;SDS011;9980;51.020;7.772;2023-10-08T14:09:14;17.47;;;9.03;;
19664;SDS011;9980;51.020;7.772;2023-10-08T14:11:48;18.23;;;9.57;;
19664;SDS011;9980;51.020;7.772;2023-10-08T14:14:19;20.90;;;9.80;;
19664;SDS011;9980;51.020;7.772;2023-10-08T14:16:51;17.63;;;9.77;;
19664;SDS011;9980;51.020;7.772;2023-10-08T14:19:20;18.93;;;9.37;;
19664;SDS011;9980;51.020;7.772;2023-10-08T14:21:55;14.77;;;8.83;;
19664;SDS011;9980;51.020;7.772;2023-10-08T14:24:29;19.00;;;10.77;;
19664;SDS011;9980;51.020;7.772;2023-10-08T14:27:01;14.77;;;9.00;;
19664;SDS011;9980;51.020;7.772;2023-10-08T14:29:37;17.40;;;9.03;;
19664;SDS011;9980;51.020;7.772;2023-10-08T14:32:07;16.37;;;9.77;;
19664;SDS011;9980;51.020;7.772;2023-10-08T14:34:37;18.42;;;8.73;;
19664;SDS011;9980;51.020;7.772;2023-10-08T14:37:07;14.97;;;8.10;;
19664;SDS011;9980;51.020;7.772;2023-10-08T14:39:53;17.17;;;8.90;;
19664;SDS011;9980;51.020;7.772;2023-10-08T14:42:39;19.55;;;9.43;;
19664;SDS011;9980;51.020;7.772;2023-10-08T14:45:26;16.00;;;8.87;;
19664;SDS011;9980;51.020;7.772;2023-10-08T14:48:07;20.93;;;8.93;;
19664;SDS011;9980;51.020;7.772;2023-10-08T14:50:38;18.13;;;8.73;;
19664;SDS011;9980;51.020;7.772;2023-10-08T14:53:06;17.13;;;8.40;;
19664;SDS011;9980;51.020;7.772;2023-10-08T14:55:34;14.40;;;7.73;;
19664;SDS011;9980;51.020;7.772;2023-10-08T14:58:04;13.67;;;8.60;;
19664;SDS011;9980;51.020;7.772;2023-10-08T15:00:34;15.90;;;8.40;;
19664;SDS011;9980;51.020;7.772;2023-10-08T15:03:04;11.43;;;8.23;;
19664;SDS011;9980;51.020;7.772;2023-10-08T15:05:31;15.33;;;8.57;;
19664;SDS011;9980;51.020;7.772;2023-10-08T15:07:58;16.83;;;8.20;;
19664;SDS011;9980;51.020;7.772;2023-10-08T15:10:25;16.50;;;8.30;;
19664;SDS011;9980;51.020;7.772;2023-10-08T15:12:52;13.77;;;8.20;;
19664;SDS011;9980;51.020;7.772;2023-10-08T15:15:20;16.43;;;8.53;;
19664;SDS011;9980;51.020;7.772;2023-10-08T15:17:51;20.47;;;9.87;;
19664;SDS011;9980;51.020;7.772;2023-10-08T15:20:19;17.90;;;9.67;;
19664;SDS011;9980;51.020;7.772;2023-10-08T15:22:47;16.17;;;8.50;;
19664;SDS011;9980;51.020;7.772;2023-10-08T15:25:16;16.17;;;9.40;;
19664;SDS011;9980;51.020;7.772;2023-10-08T15:27:44;13.60;;;8.53;;
19664;SDS011;9980;51.020;7.772;2023-10-08T15:30:14;19.10;;;9.57;;